sensor_id;sensor_type;location;lat;lon;timestamp;temperature;humidity
19868;DHT22;10096;51.112;6.776;2023-08-06T00:01:03;16.80;1.00
19868;DHT22;10096;51.112;6.776;2023-08-06T00:03:30;17.00;1.00
19868;DHT22;10096;51.112;6.776;2023-08-06T00:05:57;17.00;1.00
19868;DHT22;10096;51.112;6.776;2023-08-06T00:08:24;16.70;1.00
19868;DHT22;10096;51.112;6.776;2023-08-06T00:10:51;16.70;1.00
19868;DHT22;10096;51.112;6.776;2023-08-06T00:13:19;16.60;1.00
19868;DHT22;10096;51.112;6.776;2023-08-06T00:15:46;16.60;1.00
19868;DHT22;10096;51.112;6.776;2023-08-06T00:18:13;16.60;1.00
19868;DHT22;10096;51.112;6.776;2023-08-06T00:20:40;16.50;1.00
19868;DHT22;10096;51.112;6.776;2023-08-06T00:23:07;16.60;1.00
19868;DHT22;10096;51.112;6.776;2023-08-06T00:25:34;16.60;1.00
19868;DHT22;10096;51.112;6.776;2023-08-06T00:28:01;16.50;1.00
19868;DHT22;10096;51.112;6.776;2023-08-06T00:30:29;16.50;1.00
19868;DHT22;10096;51.112;6.776;2023-08-06T00:32:56;16.50;1.50
19868;DHT22;10096;51.112;6.776;2023-08-06T00:35:23;16.50;35.70
19868;DHT22;10096;51.112;6.776;2023-08-06T00:37:50;16.40;35.40
19868;DHT22;10096;51.112;6.776;2023-08-06T00:40:20;16.40;44.70
19868;DHT22;10096;51.112;6.776;2023-08-06T00:42:48;16.50;77.40
19868;DHT22;10096;51.112;6.776;2023-08-06T00:45:15;16.50;99.00
19868;DHT22;10096;51.112;6.776;2023-08-06T00:47:43;16.60;91.60
19868;DHT22;10096;51.112;6.776;2023-08-06T00:50:11;16.70;44.50
19868;DHT22;10096;51.112;6.776;2023-08-06T00:52:38;16.90;23.30
19868;DHT22;10096;51.112;6.776;2023-08-06T00:55:06;16.90;1.00
19868;DHT22;10096;51.112;6.776;2023-08-06T00:57:34;16.80;1.00
19868;DHT22;10096;51.112;6.776;2023-08-06T01:00:02;16.80;1.00
19868;DHT22;10096;51.112;6.776;2023-08-06T01:02:29;16.80;1.00
19868;DHT22;10096;51.112;6.776;2023-08-06T01:04:58;16.90;1.00
19868;DHT22;10096;51.112;6.776;2023-08-06T01:07:46;16.90;1.00
19868;DHT22;10096;51.112;6.776;2023-08-06T01:10:25;17.10;1.00
19868;DHT22;10096;51.112;6.776;2023-08-06T01:13:05;16.80;1.00
19868;DHT22;10096;51.112;6.776;2023-08-06T01:15:39;16.80;1.00
19868;DHT22;10096;51.112;6.776;2023-08-06T01:18:08;17.00;1.00
19868;DHT22;10096;51.112;6.776;2023-08-06T01:20:37;16.70;1.00
19868;DHT22;10096;51.112;6.776;2023-08-06T01:23:04;16.70;1.00
19868;DHT22;10096;51.112;6.776;2023-08-06T01:25:35;17.00;1.00
19868;DHT22;10096;51.112;6.776;2023-08-06T01:28:11;16.70;1.00
19868;DHT22;10096;51.112;6.776;2023-08-06T01:30:41;16.70;1.00
19868;DHT22;10096;51.112;6.776;2023-08-06T01:33:14;16.60;4.50
19868;DHT22;10096;51.112;6.776;2023-08-06T01:35:44;16.90;1.00
19868;DHT22;10096;51.112;6.776;2023-08-06T01:38:12;16.60;31.30
19868;DHT22;10096;51.112;6.776;2023-08-06T01:40:39;16.90;47.90
19868;DHT22;10096;51.112;6.776;2023-08-06T01:43:06;16.60;77.70
19868;DHT22;10096;51.112;6.776;2023-08-06T01:45:33;16.60;93.10
19868;DHT22;10096;51.112;6.776;2023-08-06T01:48:00;16.60;99.90
19868;DHT22;10096;51.112;6.776;2023-08-06T01:50:27;16.50;95.70
19868;DHT22;10096;51.112;6.776;2023-08-06T01:52:56;16.80;99.90
19868;DHT22;10096;51.112;6.776;2023-08-06T01:55:23;16.60;99.90
19868;DHT22;10096;51.112;6.776;2023-08-06T01:57:50;16.70;99.90
19868;DHT22;10096;51.112;6.776;2023-08-06T02:00:17;16.50;99.90
19868;DHT22;10096;51.112;6.776;2023-08-06T02:02:44;16.80;99.90
19868;DHT22;10096;51.112;6.776;2023-08-06T02:05:10;16.50;99.90
19868;DHT22;10096;51.112;6.776;2023-08-06T02:07:38;16.70;99.90
19868;DHT22;10096;51.112;6.776;2023-08-06T02:10:08;16.50;99.90
19868;DHT22;10096;51.112;6.776;2023-08-06T02:12:35;16.60;99.90
19868;DHT22;10096;51.112;6.776;2023-08-06T02:15:02;16.50;99.90
19868;DHT22;10096;51.112;6.776;2023-08-06T02:17:29;16.50;99.90
19868;DHT22;10096;51.112;6.776;2023-08-06T02:19:56;16.50;99.90
19868;DHT22;10096;51.112;6.776;2023-08-06T02:22:23;16.70;99.90
19868;DHT22;10096;51.112;6.776;2023-08-06T02:24:50;16.50;99.90
19868;DHT22;10096;51.112;6.776;2023-08-06T02:27:18;16.50;99.90
19868;DHT22;10096;51.112;6.776;2023-08-06T02:29:45;16.50;99.90
19868;DHT22;10096;51.112;6.776;2023-08-06T02:32:12;16.50;99.90
19868;DHT22;10096;51.112;6.776;2023-08-06T02:34:39;16.40;99.90
19868;DHT22;10096;51.112;6.776;2023-08-06T02:37:06;16.40;99.90
19868;DHT22;10096;51.112;6.776;2023-08-06T02:39:33;16.50;99.90
19868;DHT22;10096;51.112;6.776;2023-08-06T02:42:01;16.40;99.90
19868;DHT22;10096;51.112;6.776;2023-08-06T02:44:30;16.10;99.90
19868;DHT22;10096;51.112;6.776;2023-08-06T02:46:57;16.40;99.90
19868;DHT22;10096;51.112;6.776;2023-08-06T02:49:23;16.30;99.90
19868;DHT22;10096;51.112;6.776;2023-08-06T02:51:50;16.10;99.90
19868;DHT22;10096;51.112;6.776;2023-08-06T02:54:18;16.30;99.90
19868;DHT22;10096;51.112;6.776;2023-08-06T02:56:45;16.10;99.90
19868;DHT22;10096;51.112;6.776;2023-08-06T02:59:13;16.30;99.90
19868;DHT22;10096;51.112;6.776;2023-08-06T03:01:41;16.20;99.90
19868;DHT22;10096;51.112;6.776;2023-08-06T03:04:08;16.20;99.90
19868;DHT22;10096;51.112;6.776;2023-08-06T03:06:35;16.30;99.90
19868;DHT22;10096;51.112;6.776;2023-08-06T03:09:02;16.40;99.90
19868;DHT22;10096;51.112;6.776;2023-08-06T03:11:29;16.40;99.90
19868;DHT22;10096;51.112;6.776;2023-08-06T03:13:56;16.60;99.90
19868;DHT22;10096;51.112;6.776;2023-08-06T03:16:23;16.50;99.90
19868;DHT22;10096;51.112;6.776;2023-08-06T03:18:52;16.70;99.90
19868;DHT22;10096;51.112;6.776;2023-08-06T03:21:19;16.60;99.90
19868;DHT22;10096;51.112;6.776;2023-08-06T03:23:48;16.60;99.90
19868;DHT22;10096;51.112;6.776;2023-08-06T03:26:15;16.50;99.90
19868;DHT22;10096;51.112;6.776;2023-08-06T03:28:42;16.60;99.90
19868;DHT22;10096;51.112;6.776;2023-08-06T03:31:09;16.60;99.90
19868;DHT22;10096;51.112;6.776;2023-08-06T03:33:36;16.70;99.90
19868;DHT22;10096;51.112;6.776;2023-08-06T03:36:04;16.90;99.90
19868;DHT22;10096;51.112;6.776;2023-08-06T03:38:33;16.90;99.90
19868;DHT22;10096;51.112;6.776;2023-08-06T03:41:00;16.80;99.90
19868;DHT22;10096;51.112;6.776;2023-08-06T03:43:27;17.00;99.90
19868;DHT22;10096;51.112;6.776;2023-08-06T03:45:54;16.70;99.90
19868;DHT22;10096;51.112;6.776;2023-08-06T03:48:21;16.80;99.90
19868;DHT22;10096;51.112;6.776;2023-08-06T03:50:48;16.80;99.90
19868;DHT22;10096;51.112;6.776;2023-08-06T03:53:17;17.10;99.90
19868;DHT22;10096;51.112;6.776;2023-08-06T03:55:44;16.90;99.90
19868;DHT22;10096;51.112;6.776;2023-08-06T03:58:11;16.90;99.90
19868;DHT22;10096;51.112;6.776;2023-08-06T04:00:39;16.80;99.90
19868;DHT22;10096;51.112;6.776;2023-08-06T04:03:05;16.80;99.90
19868;DHT22;10096;51.112;6.776;2023-08-06T04:05:32;16.60;99.90
19868;DHT22;10096;51.112;6.776;2023-08-06T04:07:59;16.50;99.90
19868;DHT22;10096;51.112;6.776;2023-08-06T04:10:28;16.50;99.90
19868;DHT22;10096;51.112;6.776;2023-08-06T04:12:57;16.40;99.90
19868;DHT22;10096;51.112;6.776;2023-08-06T04:15:24;16.50;99.90
19868;DHT22;10096;51.112;6.776;2023-08-06T04:17:51;16.60;99.90
19868;DHT22;10096;51.112;6.776;2023-08-06T04:20:18;16.40;99.90
19868;DHT22;10096;51.112;6.776;2023-08-06T04:22:45;16.40;99.90
19868;DHT22;10096;51.112;6.776;2023-08-06T04:25:12;16.40;99.90
19868;DHT22;10096;51.112;6.776;2023-08-06T04:27:41;16.30;99.90
19868;DHT22;10096;51.112;6.776;2023-08-06T04:30:08;16.50;1.00
19868;DHT22;10096;51.112;6.776;2023-08-06T04:32:37;16.30;1.00
19868;DHT22;10096;51.112;6.776;2023-08-06T04:35:05;16.30;1.00
19868;DHT22;10096;51.112;6.776;2023-08-06T04:37:32;16.30;1.00
19868;DHT22;10096;51.112;6.776;2023-08-06T04:40:00;16.40;15.40
19868;DHT22;10096;51.112;6.776;2023-08-06T04:42:27;16.10;99.90
19868;DHT22;10096;51.112;6.776;2023-08-06T04:44:56;16.20;1.00
19868;DHT22;10096;51.112;6.776;2023-08-06T04:47:24;16.00;1.00
19868;DHT22;10096;51.112;6.776;2023-08-06T04:49:52;16.00;99.90
19868;DHT22;10096;51.112;6.776;2023-08-06T04:52:20;15.90;99.90
19868;DHT22;10096;51.112;6.776;2023-08-06T04:54:47;16.00;1.00
19868;DHT22;10096;51.112;6.776;2023-08-06T04:57:14;16.10;99.90
19868;DHT22;10096;51.112;6.776;2023-08-06T04:59:43;16.20;1.00
19868;DHT22;10096;51.112;6.776;2023-08-06T05:02:11;16.20;71.30
19868;DHT22;10096;51.112;6.776;2023-08-06T05:04:38;16.10;99.90
19868;DHT22;10096;51.112;6.776;2023-08-06T05:07:05;16.30;1.00
19868;DHT22;10096;51.112;6.776;2023-08-06T05:09:33;16.10;1.00
19868;DHT22;10096;51.112;6.776;2023-08-06T05:12:01;16.10;1.00
19868;DHT22;10096;51.112;6.776;2023-08-06T05:14:28;16.10;99.90
19868;DHT22;10096;51.112;6.776;2023-08-06T05:16:55;16.10;1.00
19868;DHT22;10096;51.112;6.776;2023-08-06T05:19:24;16.40;1.00
19868;DHT22;10096;51.112;6.776;2023-08-06T05:21:51;16.10;99.90
19868;DHT22;10096;51.112;6.776;2023-08-06T05:24:17;16.10;99.90
19868;DHT22;10096;51.112;6.776;2023-08-06T05:26:45;16.10;99.90
19868;DHT22;10096;51.112;6.776;2023-08-06T05:29:13;16.30;1.00
19868;DHT22;10096;51.112;6.776;2023-08-06T05:31:40;16.30;1.00
19868;DHT22;10096;51.112;6.776;2023-08-06T05:34:07;16.50;1.00
19868;DHT22;10096;51.112;6.776;2023-08-06T05:36:36;16.60;99.90
19868;DHT22;10096;51.112;6.776;2023-08-06T05:39:03;16.90;34.00
19868;DHT22;10096;51.112;6.776;2023-08-06T05:41:30;16.90;1.00
19868;DHT22;10096;51.112;6.776;2023-08-06T05:43:57;16.70;1.00
19868;DHT22;10096;51.112;6.776;2023-08-06T05:46:24;16.80;1.00
19868;DHT22;10096;51.112;6.776;2023-08-06T05:48:51;16.90;99.90
19868;DHT22;10096;51.112;6.776;2023-08-06T05:51:18;16.90;99.90
19868;DHT22;10096;51.112;6.776;2023-08-06T05:53:47;17.00;99.90
19868;DHT22;10096;51.112;6.776;2023-08-06T05:56:16;17.40;99.90
19868;DHT22;10096;51.112;6.776;2023-08-06T05:58:43;17.30;99.90
19868;DHT22;10096;51.112;6.776;2023-08-06T06:01:11;17.10;99.90
19868;DHT22;10096;51.112;6.776;2023-08-06T06:03:38;17.10;78.40
19868;DHT22;10096;51.112;6.776;2023-08-06T06:06:06;17.40;1.00
19868;DHT22;10096;51.112;6.776;2023-08-06T06:08:33;17.30;34.20
19868;DHT22;10096;51.112;6.776;2023-08-06T06:11:01;17.40;99.90
19868;DHT22;10096;51.112;6.776;2023-08-06T06:13:28;17.30;44.80
19868;DHT22;10096;51.112;6.776;2023-08-06T06:15:57;17.40;1.00
19868;DHT22;10096;51.112;6.776;2023-08-06T06:18:24;17.20;1.00
19868;DHT22;10096;51.112;6.776;2023-08-06T06:20:51;17.20;1.00
19868;DHT22;10096;51.112;6.776;2023-08-06T06:23:18;17.20;1.00
19868;DHT22;10096;51.112;6.776;2023-08-06T06:25:47;17.20;1.00
19868;DHT22;10096;51.112;6.776;2023-08-06T06:28:16;17.30;1.00
19868;DHT22;10096;51.112;6.776;2023-08-06T06:30:43;17.40;1.00
19868;DHT22;10096;51.112;6.776;2023-08-06T06:33:10;17.40;1.00
19868;DHT22;10096;51.112;6.776;2023-08-06T06:35:40;17.50;1.00
19868;DHT22;10096;51.112;6.776;2023-08-06T06:38:06;17.50;1.00
19868;DHT22;10096;51.112;6.776;2023-08-06T06:40:33;17.50;1.00
19868;DHT22;10096;51.112;6.776;2023-08-06T06:43:00;17.60;1.00
19868;DHT22;10096;51.112;6.776;2023-08-06T06:45:29;17.70;1.00
19868;DHT22;10096;51.112;6.776;2023-08-06T06:47:56;18.00;1.00
19868;DHT22;10096;51.112;6.776;2023-08-06T06:50:23;17.80;1.00
19868;DHT22;10096;51.112;6.776;2023-08-06T06:52:51;17.90;1.00
19868;DHT22;10096;51.112;6.776;2023-08-06T06:55:18;18.00;99.90
19868;DHT22;10096;51.112;6.776;2023-08-06T06:57:45;18.20;99.90
19868;DHT22;10096;51.112;6.776;2023-08-06T07:00:13;18.40;99.90
19868;DHT22;10096;51.112;6.776;2023-08-06T07:02:42;18.30;99.90
19868;DHT22;10096;51.112;6.776;2023-08-06T07:05:09;18.50;99.90
19868;DHT22;10096;51.112;6.776;2023-08-06T07:07:36;18.50;99.90
19868;DHT22;10096;51.112;6.776;2023-08-06T07:10:05;18.60;99.90
19868;DHT22;10096;51.112;6.776;2023-08-06T07:12:35;18.60;99.90
19868;DHT22;10096;51.112;6.776;2023-08-06T07:15:03;18.70;99.90
19868;DHT22;10096;51.112;6.776;2023-08-06T07:17:33;18.90;99.90
19868;DHT22;10096;51.112;6.776;2023-08-06T07:20:07;19.10;49.40
19868;DHT22;10096;51.112;6.776;2023-08-06T07:22:34;19.40;1.00
19868;DHT22;10096;51.112;6.776;2023-08-06T07:25:01;19.60;1.00
19868;DHT22;10096;51.112;6.776;2023-08-06T07:27:29;19.70;1.00
19868;DHT22;10096;51.112;6.776;2023-08-06T07:29:55;19.70;1.00
19868;DHT22;10096;51.112;6.776;2023-08-06T07:32:24;20.00;1.00
19868;DHT22;10096;51.112;6.776;2023-08-06T07:34:51;19.80;1.00
19868;DHT22;10096;51.112;6.776;2023-08-06T07:37:38;20.10;1.00
19868;DHT22;10096;51.112;6.776;2023-08-06T07:40:05;20.00;1.00
19868;DHT22;10096;51.112;6.776;2023-08-06T07:42:41;19.90;1.00
19868;DHT22;10096;51.112;6.776;2023-08-06T07:45:09;19.70;1.00
19868;DHT22;10096;51.112;6.776;2023-08-06T07:47:38;19.50;1.00
19868;DHT22;10096;51.112;6.776;2023-08-06T07:50:05;19.50;1.00
19868;DHT22;10096;51.112;6.776;2023-08-06T07:52:34;19.40;1.00
19868;DHT22;10096;51.112;6.776;2023-08-06T07:55:01;19.30;1.00
19868;DHT22;10096;51.112;6.776;2023-08-06T07:57:30;19.30;1.00
19868;DHT22;10096;51.112;6.776;2023-08-06T07:59:57;19.20;1.00
19868;DHT22;10096;51.112;6.776;2023-08-06T08:02:24;19.20;1.00
19868;DHT22;10096;51.112;6.776;2023-08-06T08:04:51;19.10;1.00
19868;DHT22;10096;51.112;6.776;2023-08-06T08:07:18;19.10;1.00
19868;DHT22;10096;51.112;6.776;2023-08-06T08:09:47;19.10;1.00
19868;DHT22;10096;51.112;6.776;2023-08-06T08:12:15;19.30;1.00
19868;DHT22;10096;51.112;6.776;2023-08-06T08:14:42;19.00;1.00
19868;DHT22;10096;51.112;6.776;2023-08-06T08:17:11;19.30;1.00
19868;DHT22;10096;51.112;6.776;2023-08-06T08:19:41;19.10;1.00
19868;DHT22;10096;51.112;6.776;2023-08-06T08:22:08;19.00;1.00
19868;DHT22;10096;51.112;6.776;2023-08-06T08:24:39;18.90;1.00
19868;DHT22;10096;51.112;6.776;2023-08-06T08:27:07;19.20;8.80
19868;DHT22;10096;51.112;6.776;2023-08-06T08:29:34;19.00;1.00
19868;DHT22;10096;51.112;6.776;2023-08-06T08:32:04;19.20;1.00
19868;DHT22;10096;51.112;6.776;2023-08-06T08:34:32;19.10;1.00
19868;DHT22;10096;51.112;6.776;2023-08-06T08:37:18;19.40;1.00
19868;DHT22;10096;51.112;6.776;2023-08-06T08:39:46;19.50;1.00
19868;DHT22;10096;51.112;6.776;2023-08-06T08:42:16;19.60;1.00
19868;DHT22;10096;51.112;6.776;2023-08-06T08:44:44;19.70;1.00
19868;DHT22;10096;51.112;6.776;2023-08-06T08:47:14;19.80;1.00
19868;DHT22;10096;51.112;6.776;2023-08-06T08:49:42;20.40;1.00
19868;DHT22;10096;51.112;6.776;2023-08-06T08:52:10;21.70;1.00
19868;DHT22;10096;51.112;6.776;2023-08-06T08:54:39;23.20;99.90
19868;DHT22;10096;51.112;6.776;2023-08-06T08:57:06;24.50;99.90
19868;DHT22;10096;51.112;6.776;2023-08-06T08:59:35;25.30;99.90
19868;DHT22;10096;51.112;6.776;2023-08-06T09:02:02;24.80;99.90
19868;DHT22;10096;51.112;6.776;2023-08-06T09:04:30;24.80;99.90
19868;DHT22;10096;51.112;6.776;2023-08-06T09:06:59;24.60;99.90
19868;DHT22;10096;51.112;6.776;2023-08-06T09:09:30;24.40;99.90
19868;DHT22;10096;51.112;6.776;2023-08-06T09:12:14;24.20;99.90
19868;DHT22;10096;51.112;6.776;2023-08-06T09:14:43;23.90;99.90
19868;DHT22;10096;51.112;6.776;2023-08-06T09:17:10;23.80;99.90
19868;DHT22;10096;51.112;6.776;2023-08-06T09:19:39;23.60;99.90
19868;DHT22;10096;51.112;6.776;2023-08-06T09:22:11;23.70;99.90
19868;DHT22;10096;51.112;6.776;2023-08-06T09:24:39;23.60;99.90
19868;DHT22;10096;51.112;6.776;2023-08-06T09:27:11;23.60;99.90
19868;DHT22;10096;51.112;6.776;2023-08-06T09:29:40;23.60;99.90
19868;DHT22;10096;51.112;6.776;2023-08-06T09:32:09;23.90;99.90
19868;DHT22;10096;51.112;6.776;2023-08-06T09:34:39;24.40;99.90
19868;DHT22;10096;51.112;6.776;2023-08-06T09:37:08;24.70;99.90
19868;DHT22;10096;51.112;6.776;2023-08-06T09:39:38;24.60;99.90
19868;DHT22;10096;51.112;6.776;2023-08-06T09:42:06;23.70;99.90
19868;DHT22;10096;51.112;6.776;2023-08-06T09:44:33;22.80;99.90
19868;DHT22;10096;51.112;6.776;2023-08-06T09:47:02;21.90;99.90
19868;DHT22;10096;51.112;6.776;2023-08-06T09:49:43;21.10;99.90
19868;DHT22;10096;51.112;6.776;2023-08-06T09:52:11;20.70;99.90
19868;DHT22;10096;51.112;6.776;2023-08-06T09:54:39;20.30;1.00
19868;DHT22;10096;51.112;6.776;2023-08-06T09:57:06;20.10;1.00
19868;DHT22;10096;51.112;6.776;2023-08-06T09:59:34;19.90;1.00
19868;DHT22;10096;51.112;6.776;2023-08-06T10:02:03;19.40;1.00
19868;DHT22;10096;51.112;6.776;2023-08-06T10:04:32;19.20;1.00
19868;DHT22;10096;51.112;6.776;2023-08-06T10:07:01;18.80;1.00
19868;DHT22;10096;51.112;6.776;2023-08-06T10:09:28;18.70;1.00
19868;DHT22;10096;51.112;6.776;2023-08-06T10:11:56;18.80;1.00
19868;DHT22;10096;51.112;6.776;2023-08-06T10:14:26;18.90;1.00
19868;DHT22;10096;51.112;6.776;2023-08-06T10:16:55;18.50;1.00
19868;DHT22;10096;51.112;6.776;2023-08-06T10:19:25;18.60;1.00
19868;DHT22;10096;51.112;6.776;2023-08-06T10:22:15;18.90;17.20
19868;DHT22;10096;51.112;6.776;2023-08-06T10:24:50;18.90;8.70
19868;DHT22;10096;51.112;6.776;2023-08-06T10:27:22;18.80;1.00
19868;DHT22;10096;51.112;6.776;2023-08-06T10:29:50;19.00;1.00
19868;DHT22;10096;51.112;6.776;2023-08-06T10:32:17;18.80;1.00
19868;DHT22;10096;51.112;6.776;2023-08-06T10:34:58;18.80;1.00
19868;DHT22;10096;51.112;6.776;2023-08-06T10:37:37;18.60;1.00
19868;DHT22;10096;51.112;6.776;2023-08-06T10:40:06;18.50;1.00
19868;DHT22;10096;51.112;6.776;2023-08-06T10:42:33;18.20;1.00
19868;DHT22;10096;51.112;6.776;2023-08-06T10:45:15;17.90;1.00
19868;DHT22;10096;51.112;6.776;2023-08-06T10:47:43;18.00;1.00
19868;DHT22;10096;51.112;6.776;2023-08-06T10:50:13;17.90;1.00
19868;DHT22;10096;51.112;6.776;2023-08-06T10:52:44;18.10;1.00
19868;DHT22;10096;51.112;6.776;2023-08-06T10:55:12;17.70;1.00
19868;DHT22;10096;51.112;6.776;2023-08-06T10:57:39;17.70;12.50
19868;DHT22;10096;51.112;6.776;2023-08-06T11:00:07;17.70;1.00
19868;DHT22;10096;51.112;6.776;2023-08-06T11:02:36;17.70;20.30
19868;DHT22;10096;51.112;6.776;2023-08-06T11:05:07;17.90;15.30
19868;DHT22;10096;51.112;6.776;2023-08-06T11:07:35;17.50;22.30
19868;DHT22;10096;51.112;6.776;2023-08-06T11:10:06;17.50;85.80
19868;DHT22;10096;51.112;6.776;2023-08-06T11:12:34;17.50;99.90
19868;DHT22;10096;51.112;6.776;2023-08-06T11:15:02;17.50;99.90
19868;DHT22;10096;51.112;6.776;2023-08-06T11:17:30;17.40;99.90
19868;DHT22;10096;51.112;6.776;2023-08-06T11:19:59;17.30;99.90
19868;DHT22;10096;51.112;6.776;2023-08-06T11:22:26;17.30;99.90
19868;DHT22;10096;51.112;6.776;2023-08-06T11:24:54;17.20;99.90
19868;DHT22;10096;51.112;6.776;2023-08-06T11:27:25;17.40;99.90
19868;DHT22;10096;51.112;6.776;2023-08-06T11:29:52;17.40;99.90
19868;DHT22;10096;51.112;6.776;2023-08-06T11:32:19;17.40;99.90
19868;DHT22;10096;51.112;6.776;2023-08-06T11:34:46;17.40;99.90
19868;DHT22;10096;51.112;6.776;2023-08-06T11:37:13;17.50;99.90
19868;DHT22;10096;51.112;6.776;2023-08-06T11:39:47;17.80;99.90
19868;DHT22;10096;51.112;6.776;2023-08-06T11:42:19;17.80;42.50
19868;DHT22;10096;51.112;6.776;2023-08-06T11:44:48;18.00;1.00
19868;DHT22;10096;51.112;6.776;2023-08-06T11:47:18;18.00;1.00
19868;DHT22;10096;51.112;6.776;2023-08-06T11:49:47;18.20;1.00
19868;DHT22;10096;51.112;6.776;2023-08-06T11:52:16;18.20;1.00
19868;DHT22;10096;51.112;6.776;2023-08-06T11:54:47;18.10;1.00
19868;DHT22;10096;51.112;6.776;2023-08-06T11:57:15;17.90;1.00
19868;DHT22;10096;51.112;6.776;2023-08-06T11:59:43;18.10;1.00
19868;DHT22;10096;51.112;6.776;2023-08-06T12:02:11;18.30;1.00
19868;DHT22;10096;51.112;6.776;2023-08-06T12:04:58;18.20;1.00
19868;DHT22;10096;51.112;6.776;2023-08-06T12:07:27;18.30;1.00
19868;DHT22;10096;51.112;6.776;2023-08-06T12:09:54;18.70;1.00
19868;DHT22;10096;51.112;6.776;2023-08-06T12:12:21;18.40;1.00
19868;DHT22;10096;51.112;6.776;2023-08-06T12:14:48;18.50;1.00
19868;DHT22;10096;51.112;6.776;2023-08-06T12:17:18;18.60;1.00
19868;DHT22;10096;51.112;6.776;2023-08-06T12:19:45;18.80;1.00
19868;DHT22;10096;51.112;6.776;2023-08-06T12:22:14;19.10;1.00
19868;DHT22;10096;51.112;6.776;2023-08-06T12:24:42;18.90;1.00
19868;DHT22;10096;51.112;6.776;2023-08-06T12:27:09;19.00;1.00
19868;DHT22;10096;51.112;6.776;2023-08-06T12:29:39;18.70;1.00
19868;DHT22;10096;51.112;6.776;2023-08-06T12:32:07;18.60;1.00
19868;DHT22;10096;51.112;6.776;2023-08-06T12:34:35;18.50;1.00
19868;DHT22;10096;51.112;6.776;2023-08-06T12:37:02;18.50;1.00
19868;DHT22;10096;51.112;6.776;2023-08-06T12:39:30;18.50;1.00
19868;DHT22;10096;51.112;6.776;2023-08-06T12:41:58;18.50;1.00
19868;DHT22;10096;51.112;6.776;2023-08-06T12:44:26;18.50;1.00
19868;DHT22;10096;51.112;6.776;2023-08-06T12:46:53;18.60;1.00
19868;DHT22;10096;51.112;6.776;2023-08-06T12:49:20;18.60;1.00
19868;DHT22;10096;51.112;6.776;2023-08-06T12:51:49;18.50;1.00
19868;DHT22;10096;51.112;6.776;2023-08-06T12:54:17;19.00;1.00
19868;DHT22;10096;51.112;6.776;2023-08-06T12:56:44;19.00;1.00
19868;DHT22;10096;51.112;6.776;2023-08-06T12:59:11;18.90;1.00
19868;DHT22;10096;51.112;6.776;2023-08-06T13:01:39;19.00;1.00
19868;DHT22;10096;51.112;6.776;2023-08-06T13:04:06;19.10;99.90
19868;DHT22;10096;51.112;6.776;2023-08-06T13:06:33;18.90;1.00
19868;DHT22;10096;51.112;6.776;2023-08-06T13:09:04;19.00;99.90
19868;DHT22;10096;51.112;6.776;2023-08-06T13:11:31;19.00;1.00
19868;DHT22;10096;51.112;6.776;2023-08-06T13:14:05;19.20;99.90
19868;DHT22;10096;51.112;6.776;2023-08-06T13:16:32;19.20;99.90
19868;DHT22;10096;51.112;6.776;2023-08-06T13:18:59;19.30;99.90
19868;DHT22;10096;51.112;6.776;2023-08-06T13:21:34;19.40;99.90
19868;DHT22;10096;51.112;6.776;2023-08-06T13:24:01;18.90;99.90
19868;DHT22;10096;51.112;6.776;2023-08-06T13:26:30;18.70;99.90
19868;DHT22;10096;51.112;6.776;2023-08-06T13:28:58;18.70;99.90
19868;DHT22;10096;51.112;6.776;2023-08-06T13:31:27;18.70;1.00
19868;DHT22;10096;51.112;6.776;2023-08-06T13:33:54;18.80;1.00
19868;DHT22;10096;51.112;6.776;2023-08-06T13:36:23;18.80;1.00
19868;DHT22;10096;51.112;6.776;2023-08-06T13:38:50;18.80;1.00
19868;DHT22;10096;51.112;6.776;2023-08-06T13:41:17;18.80;1.00
19868;DHT22;10096;51.112;6.776;2023-08-06T13:43:46;19.10;1.00
19868;DHT22;10096;51.112;6.776;2023-08-06T13:46:13;19.30;1.00
19868;DHT22;10096;51.112;6.776;2023-08-06T13:48:44;19.30;1.00
19868;DHT22;10096;51.112;6.776;2023-08-06T13:51:11;19.30;1.00
19868;DHT22;10096;51.112;6.776;2023-08-06T13:53:38;19.50;1.00
19868;DHT22;10096;51.112;6.776;2023-08-06T13:56:05;19.40;1.00
19868;DHT22;10096;51.112;6.776;2023-08-06T13:58:33;19.60;1.00
19868;DHT22;10096;51.112;6.776;2023-08-06T14:01:01;19.40;1.00
19868;DHT22;10096;51.112;6.776;2023-08-06T14:03:30;19.40;1.00
19868;DHT22;10096;51.112;6.776;2023-08-06T14:05:57;19.30;1.00
19868;DHT22;10096;51.112;6.776;2023-08-06T14:08:24;19.50;1.00
19868;DHT22;10096;51.112;6.776;2023-08-06T14:10:51;19.70;1.00
19868;DHT22;10096;51.112;6.776;2023-08-06T14:13:18;19.90;99.90
19868;DHT22;10096;51.112;6.776;2023-08-06T14:15:45;20.00;99.90
19868;DHT22;10096;51.112;6.776;2023-08-06T14:18:16;20.00;1.00
19868;DHT22;10096;51.112;6.776;2023-08-06T14:20:43;20.20;99.90
19868;DHT22;10096;51.112;6.776;2023-08-06T14:23:13;20.00;99.90
19868;DHT22;10096;51.112;6.776;2023-08-06T14:25:40;20.10;99.90
19868;DHT22;10096;51.112;6.776;2023-08-06T14:28:07;19.90;99.90
19868;DHT22;10096;51.112;6.776;2023-08-06T14:30:34;19.80;99.90
19868;DHT22;10096;51.112;6.776;2023-08-06T14:33:02;19.40;99.90
19868;DHT22;10096;51.112;6.776;2023-08-06T14:35:30;19.00;1.00
19868;DHT22;10096;51.112;6.776;2023-08-06T14:37:57;18.80;1.00
19868;DHT22;10096;51.112;6.776;2023-08-06T14:40:24;18.50;1.00
19868;DHT22;10096;51.112;6.776;2023-08-06T14:42:57;18.30;1.00
19868;DHT22;10096;51.112;6.776;2023-08-06T14:45:24;18.20;1.00
19868;DHT22;10096;51.112;6.776;2023-08-06T14:47:52;18.30;1.00
19868;DHT22;10096;51.112;6.776;2023-08-06T14:50:22;18.10;1.00
19868;DHT22;10096;51.112;6.776;2023-08-06T14:52:50;18.00;1.00
19868;DHT22;10096;51.112;6.776;2023-08-06T14:55:25;17.70;1.00
19868;DHT22;10096;51.112;6.776;2023-08-06T14:57:52;17.80;1.00
19868;DHT22;10096;51.112;6.776;2023-08-06T15:00:20;18.10;1.00
19868;DHT22;10096;51.112;6.776;2023-08-06T15:02:47;18.00;37.40
19868;DHT22;10096;51.112;6.776;2023-08-06T15:05:14;17.80;72.80
19868;DHT22;10096;51.112;6.776;2023-08-06T15:07:43;17.60;59.90
19868;DHT22;10096;51.112;6.776;2023-08-06T15:10:13;17.60;8.70
19868;DHT22;10096;51.112;6.776;2023-08-06T15:12:40;17.50;3.80
19868;DHT22;10096;51.112;6.776;2023-08-06T15:15:08;17.40;1.00
19868;DHT22;10096;51.112;6.776;2023-08-06T15:17:35;17.50;99.90
19868;DHT22;10096;51.112;6.776;2023-08-06T15:20:04;17.60;99.90
19868;DHT22;10096;51.112;6.776;2023-08-06T15:22:31;17.70;99.90
19868;DHT22;10096;51.112;6.776;2023-08-06T15:24:59;17.80;1.00
19868;DHT22;10096;51.112;6.776;2023-08-06T15:27:28;18.00;1.00
19868;DHT22;10096;51.112;6.776;2023-08-06T15:29:55;18.10;1.00
19868;DHT22;10096;51.112;6.776;2023-08-06T15:32:22;18.10;1.00
19868;DHT22;10096;51.112;6.776;2023-08-06T15:34:49;18.30;1.00
19868;DHT22;10096;51.112;6.776;2023-08-06T15:37:16;18.60;1.00
19868;DHT22;10096;51.112;6.776;2023-08-06T15:39:44;18.80;1.00
19868;DHT22;10096;51.112;6.776;2023-08-06T15:42:11;18.60;1.00
19868;DHT22;10096;51.112;6.776;2023-08-06T15:44:40;18.70;1.00
19868;DHT22;10096;51.112;6.776;2023-08-06T15:47:06;18.80;1.00